SCC: Mid-Ohio: GS practice one times

Pos Num Class Team Time Gap To 1st Speed --- --- ----- ------------------------------ ---------- ------- ------- ------- 1. 96 GS Turner Motorsport 1:33.028 87.380 2. 97...

Pos Num Class Team                                 Time     Gap  To 1st   Speed
--- --- ----- ------------------------------ ---------- ------- ------- -------
 1.  96 GS    Turner Motorsport                1:33.028                  87.380
 2.  97 GS    Turner Motorsport                1:33.294   0.266   0.266  87.131
 3.  91 GS    Automatic Racing                 1:33.356   0.062   0.328  87.073
 4.  80 GS    Kinetic Motorsports              1:33.496   0.140   0.468  86.943
 5.  09 GS    Automatic Racing                 1:33.565   0.069   0.537  86.879
 6.  55 GS    Hyper Sport                      1:33.673   0.108   0.645  86.778
 7.  40 GS    TRG                              1:33.676   0.003   0.648  86.776
 8.  99 GS    Automatic Racing                 1:33.713   0.037   0.685  86.741
 9.  79 GS    Kinetic Motorsports              1:33.741   0.028   0.713  86.716
10.  25 GS    Fiorano/C-MAX Racing             1:33.783   0.042   0.755  86.677
11.  16 GS    Champion Motorsports             1:33.807   0.024   0.779  86.655
12.  41 GS    TRG                              1:34.082   0.275   1.054  86.401
13.  52 GS    Rehagen Racing                   1:34.131   0.049   1.103  86.356
14.  26 GS    Fiorano/C-MAX Racing             1:34.146   0.015   1.118  86.342
15.  78 GS    Kinetic Motorsports              1:34.168   0.022   1.140  86.322
16.  38 GS    BGB Motorsports                  1:34.231   0.063   1.203  86.265
17.  49 GS    Marcus Motorsports               1:34.360   0.129   1.332  86.147
18.   5 GS    Blackforest Motorsports          1:34.388   0.028   1.360  86.121
19.  39 GS    TRG                              1:34.474   0.086   1.446  86.043
20.  37 GS    JBS Racing                       1:34.509   0.035   1.481  86.011
21. 137 GS    JBS Motorsports                  1:34.538   0.029   1.510  85.984
22.  90 GS    Automatic Racing                 1:34.664   0.126   1.636  85.870
23.  46 GS    Fall-Line Motorsports            1:34.744   0.080   1.716  85.798
24.  33 GS    Playboy Racing                   1:34.820   0.076   1.792  85.729
25.  83 GS    BGB Motorsports                  1:34.857   0.037   1.829  85.695
26.  07 GS    Cardiosport Racing               1:34.979   0.122   1.951  85.585
27.  88 GS    Ranger Sports Racing             1:35.005   0.026   1.977  85.562
28.  87 GS    Ranger Sports Racing             1:35.151   0.146   2.123  85.431
29. 154 GS    Rehagen Racing                   1:35.309   0.158   2.281  85.289
30.   4 GS    Blackforest Motorsports          1:35.440   0.131   2.412  85.172
31.  89 GS    Ranger Sports Racing             1:35.469   0.029   2.441  85.146
32.  43 GS    ASC Motorsports                  1:35.487   0.018   2.459  85.130
33.  59 GS    Rehagen Racing                   1:35.851   0.364   2.823  84.807
34.  17 GS    Team Centurion                   1:35.934   0.083   2.906  84.733
35.  05 GS    Team Sahlen                      1:36.020   0.086   2.992  84.657
36.  54 GS    Hyper Sport                      1:36.635   0.615   3.607  84.119
37.  28 GS    Fall-Line Motorsports            1:37.303   0.668   4.275  83.541
38.  42 GS    TRG                              1:38.502   1.199   5.474  82.524
39.  05 GS    Team Sahlen                      1:38.630   0.128   5.602  82.417
40.  04 GS    Team Sahlen                      1:39.953   1.323   6.925  81.326
41.  20 GS    Horsepower Ranch                  No Time

Be part of something big

Write a comment
Show comments
About this article
Series Grand-Am
Teams Kinetic Motorsports , Rehagen Racing , Turner Motorsport , Team Sahlen , Automatic Racing , Fall-Line Motorsports